KHYR/HYR METAR and TAF weather

Enter ICAO airport designator
Station Type Date Time Source
KHYR METAR 2019/12/06 01:53 UTC NOAA

KHYR 060153Z AUTO 36005KT 10SM SCT010 OVC018 M02/M05 A2998 RMK AO2 SLP170 T10171050 $


Station Type Date Time Source
KHYR Decoded METAR 2019/12/06 01:53 UTC NOAA

HAYWARD MUNICIPAL AIRPORT, WI, United States (KHYR) 46-01N 91-27W 370M
Dec 05, 2019 - 08:53 PM EST / 2019.12.06 0153 UTC
Wind: from the N (360 degrees) at 6 MPH (5 KT):0
Visibility: 10 mile(s):0
Sky conditions: overcast
Temperature: 28.9 F (-1.7 C)
Windchill: 23 F (-5 C):1
Dew Point: 23.0 F (-5.0 C)
Relative Humidity: 78%
Pressure (altimeter): 29.98 in. Hg (1015 hPa)
ob: KHYR 060153Z AUTO 36005KT 10SM SCT010 OVC018 M02/M05 A2998 RMK AO2 SLP170 T10171050
cycle: 2

Station Type Date Time Source
KHYR TAF 2019/12/05 18:42 UTC NOAA

TAF KHYR 051741Z 0518/0618 15004KT P6SM OVC060
FM052300 00000KT P6SM OVC012
FM060100 VRB04KT P6SM VCSH BKN008
FM060500 33007KT P6SM BKN012
FM060800 33007KT P6SM BKN035
FM061200 31004KT P6SM SCT080

Example: see airport list